Time;durP1;ratioP1;P1;durP2;ratioP2;P2;SDS_P1;SDS_P2;PMS_P1;PMS_P2;Temp;Humidity;BMP_temperature;BMP_pressure;BME280_temperature;BME280_humidity;BME280_pressure;Samples;Min_cycle;Max_cycle;Signal;HPM_P1;HPM_P2
2023/01/28 00:01:45;;;;;;;15.85;13.10;;;0.10;99.90;;;;;;5014633;28;20498;-74
2023/01/28 00:04:11;;;;;;;18.38;13.63;;;0.10;99.90;;;;;;5027360;28;20040;-74
2023/01/28 00:06:38;;;;;;;17.83;14.60;;;0.10;99.90;;;;;;5033057;28;20044;-74
2023/01/28 00:09:05;;;;;;;16.98;13.95;;;0.20;99.90;;;;;;5032573;28;20068;-74
2023/01/28 00:11:32;;;;;;;15.55;12.43;;;0.10;99.90;;;;;;5016320;28;20048;-74
2023/01/28 00:13:59;;;;;;;19.67;13.98;;;0.00;99.90;;;;;;5050626;28;20123;-74
2023/01/28 00:16:26;;;;;;;16.58;13.35;;;-0.10;99.90;;;;;;5033363;28;20038;-74
2023/01/28 00:18:54;;;;;;;17.77;14.15;;;0.10;99.90;;;;;;5034041;28;20040;-74
2023/01/28 00:21:20;;;;;;;18.25;13.45;;;0.10;99.90;;;;;;5020321;28;20069;-76
2023/01/28 00:23:53;;;;;;;22.30;14.73;;;0.00;99.90;;;;;;5036235;28;20053;-77
2023/01/28 00:26:21;;;;;;;19.08;12.55;;;0.20;99.90;;;;;;5032354;28;20132;-76
2023/01/28 00:28:48;;;;;;;17.75;14.07;;;0.20;99.90;;;;;;5045237;28;20059;-76
2023/01/28 00:31:21;;;;;;;18.40;14.15;;;0.20;99.90;;;;;;5039755;28;20147;-74
2023/01/28 00:33:49;;;;;;;17.02;14.02;;;0.20;99.90;;;;;;5032259;28;20128;-74
2023/01/28 00:36:17;;;;;;;16.70;14.63;;;0.20;99.90;;;;;;5015820;28;20559;-74
2023/01/28 00:38:52;;;;;;;22.92;14.90;;;0.40;99.90;;;;;;5021242;28;20052;-73
2023/01/28 00:41:21;;;;;;;19.23;15.27;;;0.40;99.90;;;;;;5033130;28;20041;-74
2023/01/28 00:43:50;;;;;;;15.57;13.75;;;0.50;99.90;;;;;;5031176;28;20107;-76
2023/01/28 00:46:18;;;;;;;20.73;15.57;;;0.50;99.90;;;;;;5037151;28;20061;-76
2023/01/28 00:48:47;;;;;;;19.13;14.68;;;0.60;99.90;;;;;;5017853;28;20041;-74
2023/01/28 00:51:19;;;;;;;21.08;15.23;;;0.50;99.90;;;;;;5023012;28;20051;-74
2023/01/28 00:53:48;;;;;;;19.25;16.05;;;0.40;99.90;;;;;;5034238;28;20044;-74
2023/01/28 00:56:16;;;;;;;25.67;15.25;;;0.40;99.90;;;;;;5034376;28;20380;-74
2023/01/28 00:58:43;;;;;;;19.85;14.98;;;0.40;99.90;;;;;;5031987;28;20127;-74
2023/01/28 01:01:29;;;;;;;18.05;15.02;;;0.40;99.90;;;;;;5028812;28;20044;-74
2023/01/28 01:04:01;;;;;;;19.55;15.23;;;0.30;99.90;;;;;;5031810;28;20063;-74
2023/01/28 01:06:35;;;;;;;26.67;14.63;;;0.30;99.90;;;;;;5031028;28;20341;-74
2023/01/28 01:09:03;;;;;;;21.02;14.88;;;0.30;99.90;;;;;;5054442;28;20041;-73
2023/01/28 01:11:34;;;;;;;22.38;14.13;;;0.20;99.90;;;;;;5035165;28;20077;-74
2023/01/28 01:14:04;;;;;;;21.10;15.57;;;0.20;99.90;;;;;;5013846;28;20131;-76
2023/01/28 01:16:32;;;;;;;21.60;14.68;;;0.30;99.90;;;;;;5023269;28;20033;-76
2023/01/28 01:18:59;;;;;;;22.02;15.48;;;0.30;99.90;;;;;;5035015;28;20426;-75
2023/01/28 01:21:27;;;;;;;23.45;15.15;;;0.30;99.90;;;;;;5031688;28;20055;-76
2023/01/28 01:23:54;;;;;;;18.42;13.85;;;0.30;99.90;;;;;;5028185;28;20039;-75
2023/01/28 01:26:21;;;;;;;18.40;14.10;;;0.30;99.90;;;;;;5032319;28;20566;-76
2023/01/28 01:28:50;;;;;;;18.92;14.15;;;0.40;99.90;;;;;;5015214;28;20050;-76
2023/01/28 01:31:19;;;;;;;19.27;14.80;;;0.40;99.90;;;;;;5034702;28;20225;-76
2023/01/28 01:33:47;;;;;;;16.60;13.63;;;0.40;99.90;;;;;;5030752;28;20475;-75
2023/01/28 01:36:16;;;;;;;18.05;14.98;;;0.40;99.90;;;;;;5030406;28;20041;-75
2023/01/28 01:38:43;;;;;;;17.48;14.40;;;0.40;99.90;;;;;;5023516;28;20061;-75
2023/01/28 01:41:23;;;;;;;15.68;13.88;;;0.30;99.90;;;;;;5028966;28;20041;-75
2023/01/28 01:44:04;;;;;;;17.35;15.25;;;0.30;99.90;;;;;;5027488;28;20049;-75
2023/01/28 01:46:40;;;;;;;18.27;14.15;;;0.40;99.90;;;;;;5033211;28;20132;-74
2023/01/28 01:49:27;;;;;;;15.13;12.20;;;0.30;99.90;;;;;;5045838;28;20056;-74
2023/01/28 01:52:09;;;;;;;18.15;14.45;;;0.30;99.90;;;;;;5010715;28;20076;-74
2023/01/28 01:54:38;;;;;;;14.98;12.48;;;0.30;99.90;;;;;;5054000;28;20045;-74
2023/01/28 01:57:11;;;;;;;14.85;12.98;;;0.30;99.90;;;;;;5027120;28;20069;-74
2023/01/28 01:59:41;;;;;;;16.92;13.93;;;0.30;99.90;;;;;;5031825;28;20044;-74
2023/01/28 02:02:10;;;;;;;14.23;12.73;;;0.30;99.90;;;;;;5018015;28;20051;-75
2023/01/28 02:04:43;;;;;;;17.00;13.48;;;0.30;99.90;;;;;;5033670;28;20494;-74
2023/01/28 02:07:17;;;;;;;15.88;12.93;;;0.30;99.90;;;;;;5018622;28;20052;-74
2023/01/28 02:09:44;;;;;;;15.20;13.15;;;0.30;99.90;;;;;;5033840;28;20681;-74
2023/01/28 02:12:19;;;;;;;14.13;12.80;;;0.40;99.90;;;;;;5030661;28;20438;-74
2023/01/28 02:15:18;;;;;;;14.60;13.30;;;0.30;99.90;;;;;;5010751;28;20043;-74
2023/01/28 02:17:45;;;;;;;14.07;12.63;;;0.40;99.90;;;;;;5003296;28;20041;-74
2023/01/28 02:20:21;;;;;;;15.80;13.20;;;0.30;99.90;;;;;;5012656;28;20446;-74
2023/01/28 02:23:02;;;;;;;13.15;11.95;;;0.30;99.90;;;;;;5029795;28;20132;-74
2023/01/28 02:25:53;;;;;;;15.20;12.43;;;0.20;99.90;;;;;;5029358;28;20254;-74
2023/01/28 02:28:47;;;;;;;13.98;12.68;;;0.20;99.90;;;;;;5029359;28;20048;-74
2023/01/28 02:31:18;;;;;;;12.95;11.65;;;0.10;99.90;;;;;;5028169;28;20453;-74
2023/01/28 02:33:48;;;;;;;15.15;12.75;;;0.20;99.90;;;;;;5021749;28;20538;-76
2023/01/28 02:36:23;;;;;;;13.20;11.98;;;0.20;99.90;;;;;;5036642;28;20165;-74
2023/01/28 02:38:53;;;;;;;15.18;13.68;;;0.20;99.90;;;;;;5011272;28;20119;-74
2023/01/28 02:41:39;;;;;;;19.02;13.20;;;0.30;99.90;;;;;;5028721;28;20164;-74
2023/01/28 02:44:07;;;;;;;15.02;13.38;;;0.30;99.90;;;;;;5041014;28;20053;-74
2023/01/28 02:49:27;;;;;;;15.18;13.85;;;0.10;99.90;;;;;;5020800;28;20665;-74
2023/01/28 02:52:06;;;;;;;15.32;13.77;;;0.10;99.90;;;;;;5027685;28;20048;-73
2023/01/28 02:54:54;;;;;;;13.38;12.18;;;0.10;99.90;;;;;;5029835;28;20410;-74
2023/01/28 02:57:52;;;;;;;14.70;13.23;;;0.10;99.90;;;;;;5007336;28;20448;-74
2023/01/28 03:00:26;;;;;;;13.48;12.23;;;0.20;99.90;;;;;;5012493;28;20068;-74
2023/01/28 03:03:07;;;;;;;14.30;12.88;;;0.10;99.90;;;;;;5022250;28;20695;-76
2023/01/28 03:05:40;;;;;;;14.43;12.95;;;0.10;99.90;;;;;;5031740;28;20399;-76
2023/01/28 03:39:34;;;;;;;13.15;11.95;;;0.20;99.90;;;;;;5051464;28;20036;-74
2023/01/28 03:42:12;;;;;;;13.60;12.40;;;0.20;99.90;;;;;;5034535;28;20050;-74
2023/01/28 03:44:52;;;;;;;13.18;11.88;;;0.20;99.90;;;;;;5031634;28;20079;-74
2023/01/28 03:47:25;;;;;;;13.85;12.65;;;0.10;99.90;;;;;;5021182;28;20063;-73
2023/01/28 03:49:54;;;;;;;13.73;12.48;;;0.20;99.90;;;;;;5062583;22;20051;-75
2023/01/28 03:52:24;;;;;;;13.88;12.77;;;0.20;99.90;;;;;;5044250;28;20032;-75
2023/01/28 03:54:54;;;;;;;14.32;12.93;;;0.20;99.90;;;;;;5051426;28;20120;-77
2023/01/28 03:57:23;;;;;;;12.63;11.50;;;0.30;99.90;;;;;;5037531;28;20036;-77
2023/01/28 03:59:51;;;;;;;12.20;11.20;;;0.40;99.90;;;;;;5033847;28;20073;-75
2023/01/28 04:02:20;;;;;;;14.10;12.75;;;0.40;99.90;;;;;;5032272;28;20070;-74
2023/01/28 04:04:49;;;;;;;13.50;12.18;;;0.40;99.90;;;;;;5042728;28;20041;-77
2023/01/28 04:07:17;;;;;;;13.98;12.57;;;0.40;99.90;;;;;;5038239;28;20135;-77
2023/01/28 04:10:10;;;;;;;14.35;13.38;;;0.40;99.90;;;;;;5034577;28;20049;-74
2023/01/28 04:12:53;;;;;;;15.25;14.00;;;0.20;99.90;;;;;;5041452;28;20052;-74
2023/01/28 04:15:20;;;;;;;15.43;13.95;;;0.10;99.90;;;;;;5033301;28;20571;-75
2023/01/28 04:17:48;;;;;;;15.45;14.45;;;0.20;99.90;;;;;;5031787;28;20033;-75
2023/01/28 04:20:24;;;;;;;15.93;14.80;;;0.20;99.90;;;;;;5016703;28;20489;-75
2023/01/28 04:22:50;;;;;;;16.08;14.55;;;0.30;99.90;;;;;;5010078;28;20510;-75
2023/01/28 04:25:19;;;;;;;16.70;15.48;;;0.40;99.90;;;;;;5034098;28;20106;-78
2023/01/28 04:27:46;;;;;;;16.90;15.80;;;0.30;99.90;;;;;;5030389;28;20139;-75
2023/01/28 04:30:17;;;;;;;17.35;16.05;;;0.30;99.90;;;;;;5033999;28;20631;-75
2023/01/28 04:32:59;;;;;;;17.45;16.42;;;0.40;99.90;;;;;;5026429;28;20049;-75
2023/01/28 04:35:58;;;;;;;17.85;16.35;;;0.40;99.90;;;;;;5002839;28;20036;-75
2023/01/28 04:39:00;;;;;;;18.60;17.20;;;0.30;99.90;;;;;;5023997;28;20400;-75
2023/01/28 04:41:41;;;;;;;17.65;16.58;;;0.30;99.90;;;;;;5031709;28;20044;-77
2023/01/28 04:44:23;;;;;;;17.58;16.45;;;0.20;99.90;;;;;;5031325;28;20109;-75
2023/01/28 04:47:00;;;;;;;18.88;17.67;;;0.20;99.90;;;;;;5035536;28;20430;-75
2023/01/28 04:49:42;;;;;;;18.67;17.48;;;0.20;99.90;;;;;;5032180;28;20493;-75
2023/01/28 04:52:32;;;;;;;19.35;17.85;;;0.20;99.90;;;;;;5012286;28;20032;-75
2023/01/28 04:55:07;;;;;;;17.17;16.02;;;0.20;99.90;;;;;;5035715;28;20522;-77
2023/01/28 04:57:34;;;;;;;18.02;16.70;;;0.30;99.90;;;;;;5051708;28;20037;-75
2023/01/28 05:00:04;;;;;;;17.27;16.15;;;0.20;99.90;;;;;;5035402;28;20506;-75
2023/01/28 05:02:31;;;;;;;18.80;17.55;;;0.20;99.90;;;;;;5034355;28;20127;-75
2023/01/28 05:04:58;;;;;;;18.88;17.77;;;0.10;99.90;;;;;;5035126;28;20453;-75
2023/01/28 05:07:37;;;;;;;20.10;18.67;;;0.10;99.90;;;;;;5034158;28;20053;-78
2023/01/28 05:10:04;;;;;;;21.17;19.63;;;0.10;99.90;;;;;;5030128;28;20609;-75
2023/01/28 05:12:32;;;;;;;19.85;18.25;;;0.10;99.90;;;;;;5012418;28;20055;-75
2023/01/28 05:15:03;;;;;;;21.25;19.85;;;0.10;99.90;;;;;;5027558;28;20294;-75
2023/01/28 05:17:29;;;;;;;21.63;19.65;;;0.30;99.90;;;;;;5017390;28;20041;-77
2023/01/28 05:19:56;;;;;;;21.02;19.63;;;0.40;99.90;;;;;;5014238;28;20041;-77
2023/01/28 05:22:26;;;;;;;21.13;19.45;;;0.30;99.90;;;;;;5010385;28;20324;-75
2023/01/28 05:25:15;;;;;;;20.95;19.65;;;0.30;99.90;;;;;;5023403;28;20093;-75
2023/01/28 05:27:42;;;;;;;21.40;19.77;;;0.30;99.90;;;;;;5034729;28;20064;-76
2023/01/28 05:30:10;;;;;;;21.75;20.02;;;0.30;99.90;;;;;;5021281;28;20049;-76
2023/01/28 05:32:37;;;;;;;21.00;19.52;;;0.30;99.90;;;;;;5016285;28;20056;-76
2023/01/28 05:35:04;;;;;;;21.48;20.02;;;0.30;99.90;;;;;;5034393;28;20053;-75
2023/01/28 05:37:32;;;;;;;20.55;19.25;;;0.30;99.90;;;;;;5035642;28;20036;-75
2023/01/28 05:39:59;;;;;;;20.55;19.33;;;0.30;99.90;;;;;;5030788;28;20379;-76
2023/01/28 05:42:26;;;;;;;21.48;19.88;;;0.20;99.90;;;;;;5043705;28;20041;-76
2023/01/28 05:45:01;;;;;;;21.23;19.92;;;0.10;99.90;;;;;;5018504;28;20037;-76
2023/01/28 05:47:57;;;;;;;21.35;19.80;;;0.00;99.90;;;;;;5047698;28;20175;-75
2023/01/28 05:50:37;;;;;;;22.58;20.75;;;0.10;99.90;;;;;;5013446;28;20045;-75
2023/01/28 05:53:10;;;;;;;21.75;20.23;;;0.10;99.90;;;;;;4993978;28;20449;-75
2023/01/28 05:55:39;;;;;;;21.45;19.85;;;0.10;99.90;;;;;;5009552;28;20057;-75
2023/01/28 05:58:06;;;;;;;21.40;19.80;;;0.20;99.90;;;;;;5016034;28;20487;-75
2023/01/28 06:00:33;;;;;;;20.55;19.30;;;0.20;99.90;;;;;;5012379;28;20098;-75
2023/01/28 06:03:02;;;;;;;21.55;20.13;;;0.10;99.90;;;;;;5015149;28;20056;-75
2023/01/28 06:05:29;;;;;;;20.67;19.20;;;0.00;99.90;;;;;;5011258;28;20499;-75
2023/01/28 06:07:57;;;;;;;21.00;19.27;;;-0.10;99.90;;;;;;5005242;28;20129;-75
2023/01/28 06:10:24;;;;;;;19.80;18.48;;;-0.20;99.90;;;;;;4990174;28;20048;-75
2023/01/28 06:12:52;;;;;;;20.15;18.55;;;-0.20;99.90;;;;;;5012394;28;20338;-75
2023/01/28 06:15:43;;;;;;;19.35;18.15;;;-0.20;99.90;;;;;;5007755;28;20297;-76
2023/01/28 06:18:43;;;;;;;20.05;18.20;;;-0.10;99.90;;;;;;4951472;28;20063;-75
2023/01/28 06:21:10;;;;;;;19.70;18.55;;;-0.10;99.90;;;;;;5008274;28;20045;-75
2023/01/28 06:23:37;;;;;;;19.58;18.42;;;-0.10;99.90;;;;;;5013744;28;20099;-75
2023/01/28 06:26:07;;;;;;;21.00;19.38;;;-0.10;99.90;;;;;;5014660;28;20072;-75
2023/01/28 06:28:35;;;;;;;20.67;18.98;;;0.00;99.90;;;;;;5010035;28;20329;-75
2023/01/28 06:31:01;;;;;;;20.85;19.38;;;-0.10;99.90;;;;;;5031482;28;20037;-75
2023/01/28 06:33:28;;;;;;;21.33;19.85;;;0.00;99.90;;;;;;5029823;28;20041;-75
2023/01/28 06:35:55;;;;;;;21.48;20.13;;;0.00;99.90;;;;;;5026960;28;20050;-75
2023/01/28 06:38:22;;;;;;;21.33;19.92;;;0.00;99.90;;;;;;5003368;28;20048;-75
2023/01/28 06:40:54;;;;;;;20.58;19.27;;;-0.10;99.90;;;;;;5011347;28;20403;-75
2023/01/28 06:43:26;;;;;;;20.92;19.48;;;-0.10;99.90;;;;;;5013512;28;20097;-75
2023/01/28 06:45:54;;;;;;;21.02;19.73;;;-0.10;99.90;;;;;;5009492;28;20128;-75
2023/01/28 06:48:20;;;;;;;21.40;19.90;;;-0.20;99.90;;;;;;5026760;28;20042;-75
2023/01/28 06:50:47;;;;;;;21.00;19.70;;;-0.20;99.90;;;;;;5048680;28;20044;-75
2023/01/28 06:53:15;;;;;;;23.23;21.52;;;-0.20;99.90;;;;;;5037537;28;20036;-75
2023/01/28 06:55:42;;;;;;;21.25;19.85;;;-0.20;99.90;;;;;;5027756;28;20437;-75
2023/01/28 06:58:09;;;;;;;21.55;20.13;;;-0.20;99.90;;;;;;5045471;28;20102;-74
2023/01/28 07:00:36;;;;;;;22.17;20.45;;;-0.20;99.90;;;;;;5029667;28;20067;-75
2023/01/28 07:03:03;;;;;;;22.10;20.33;;;-0.10;99.90;;;;;;5044725;28;21414;-75
2023/01/28 07:05:30;;;;;;;23.48;21.65;;;-0.10;99.90;;;;;;5034530;28;20144;-75
2023/01/28 07:07:57;;;;;;;23.20;21.63;;;-0.10;99.90;;;;;;5050444;28;20067;-75
2023/01/28 07:10:23;;;;;;;23.25;21.48;;;0.00;99.90;;;;;;5025888;28;20036;-74
2023/01/28 07:12:50;;;;;;;22.05;20.73;;;0.00;99.90;;;;;;5021219;28;20041;-74
2023/01/28 07:15:17;;;;;;;22.73;21.23;;;-0.10;99.90;;;;;;5051780;28;20048;-75
2023/01/28 07:17:44;;;;;;;22.23;20.58;;;-0.20;99.90;;;;;;5047883;28;20112;-75
2023/01/28 07:20:13;;;;;;;23.73;22.23;;;-0.20;99.90;;;;;;5016880;28;20037;-75
2023/01/28 07:22:42;;;;;;;21.75;20.35;;;-0.20;99.90;;;;;;5045019;28;20111;-75
2023/01/28 07:25:10;;;;;;;23.92;22.33;;;-0.20;99.90;;;;;;5050649;28;20423;-75
2023/01/28 07:27:37;;;;;;;27.10;25.05;;;-0.20;99.90;;;;;;5049270;28;20151;-77
2023/01/28 07:30:04;;;;;;;25.60;23.33;;;0.00;99.90;;;;;;5031679;28;20056;-74
2023/01/28 07:32:31;;;;;;;22.35;20.77;;;-0.10;99.90;;;;;;5021770;28;20197;-74
2023/01/28 07:34:58;;;;;;;21.85;20.38;;;-0.10;99.90;;;;;;5030367;28;20032;-74
2023/01/28 07:37:24;;;;;;;21.80;20.15;;;-0.20;99.90;;;;;;5051175;28;20450;-75
2023/01/28 07:39:51;;;;;;;22.75;20.98;;;-0.10;99.90;;;;;;5024752;28;20066;-74
2023/01/28 07:42:17;;;;;;;22.02;20.30;;;-0.20;99.90;;;;;;5043602;28;20045;-74
2023/01/28 07:44:45;;;;;;;21.77;20.30;;;-0.30;99.90;;;;;;5026420;28;20438;-75
2023/01/28 07:47:12;;;;;;;22.15;20.58;;;-0.30;99.90;;;;;;5024332;28;20502;-74
2023/01/28 07:49:40;;;;;;;21.67;20.17;;;-0.20;99.90;;;;;;5015887;28;20044;-74
2023/01/28 07:52:08;;;;;;;22.85;21.55;;;-0.10;99.90;;;;;;5051188;28;20055;-74
2023/01/28 07:54:34;;;;;;;22.42;20.90;;;-0.20;99.90;;;;;;5046898;28;20456;-74
2023/01/28 07:57:01;;;;;;;25.50;23.08;;;-0.20;99.90;;;;;;5034030;28;20053;-74
2023/01/28 07:59:28;;;;;;;27.92;25.60;;;-0.20;99.90;;;;;;5052251;28;20040;-74
2023/01/28 08:01:54;;;;;;;35.72;32.67;;;-0.10;99.90;;;;;;5034342;28;20132;-74
2023/01/28 08:04:21;;;;;;;27.23;25.42;;;-0.10;99.90;;;;;;5044359;28;20048;-75
2023/01/28 08:06:48;;;;;;;27.00;24.80;;;0.00;99.90;;;;;;5029212;28;20045;-76
2023/01/28 08:09:14;;;;;;;25.60;23.77;;;-0.10;99.90;;;;;;5047195;28;20072;-76
2023/01/28 08:11:41;;;;;;;25.27;23.40;;;0.00;99.90;;;;;;5022768;28;20052;-76
2023/01/28 08:14:09;;;;;;;34.25;32.03;;;0.00;99.90;;;;;;5031811;28;20139;-76
2023/01/28 08:16:36;;;;;;;32.83;30.85;;;0.10;99.90;;;;;;5048869;28;20168;-75
2023/01/28 08:19:03;;;;;;;32.70;30.80;;;0.10;99.90;;;;;;5047144;28;21377;-76
2023/01/28 08:21:30;;;;;;;30.58;28.75;;;-0.10;99.90;;;;;;5028813;28;20049;-75
2023/01/28 08:23:56;;;;;;;31.92;30.13;;;-0.10;99.90;;;;;;5046517;28;20055;-76
2023/01/28 08:26:23;;;;;;;31.70;29.90;;;-0.10;99.90;;;;;;5025309;28;20491;-75
2023/01/28 08:28:50;;;;;;;32.53;30.33;;;-0.10;99.90;;;;;;5040062;28;20055;-74
2023/01/28 08:31:17;;;;;;;32.25;30.02;;;-0.10;99.90;;;;;;5047852;28;20428;-74
2023/01/28 08:33:44;;;;;;;31.63;29.55;;;-0.10;99.90;;;;;;5024418;28;20071;-76
2023/01/28 08:36:11;;;;;;;32.30;30.20;;;-0.10;99.90;;;;;;5029691;28;20064;-74
2023/01/28 08:38:37;;;;;;;34.22;31.77;;;0.00;99.90;;;;;;5026055;28;20052;-74
2023/01/28 08:41:04;;;;;;;32.75;30.70;;;0.20;99.90;;;;;;5033617;28;20981;-74
2023/01/28 08:43:30;;;;;;;32.28;30.10;;;0.30;99.90;;;;;;5028905;28;20040;-74
2023/01/28 08:45:57;;;;;;;34.28;31.92;;;0.40;99.90;;;;;;5030412;28;20044;-74
2023/01/28 08:48:24;;;;;;;34.33;32.13;;;0.50;99.90;;;;;;5032214;28;20140;-74
2023/01/28 08:50:51;;;;;;;32.70;30.65;;;0.60;99.90;;;;;;5032467;28;20419;-74
2023/01/28 08:53:19;;;;;;;32.97;31.05;;;0.50;99.90;;;;;;5051132;28;20048;-74
2023/01/28 08:55:46;;;;;;;34.25;32.05;;;0.50;99.90;;;;;;5047413;28;20106;-77
2023/01/28 08:58:15;;;;;;;32.53;30.52;;;0.50;99.90;;;;;;5033179;28;20033;-76
2023/01/28 09:00:43;;;;;;;33.33;31.33;;;0.40;99.90;;;;;;5048104;28;20041;-77
2023/01/28 09:03:10;;;;;;;33.65;31.48;;;0.30;99.90;;;;;;5034044;28;20353;-74
2023/01/28 09:05:37;;;;;;;32.83;30.73;;;0.40;99.90;;;;;;5050161;28;20653;-74
2023/01/28 09:08:07;;;;;;;32.58;30.77;;;0.50;99.90;;;;;;5050400;28;20798;-74
2023/01/28 09:10:36;;;;;;;32.42;30.48;;;0.40;99.90;;;;;;5045910;28;20048;-74
2023/01/28 09:13:08;;;;;;;33.00;31.10;;;0.40;99.90;;;;;;5039679;28;20044;-74
2023/01/28 09:15:35;;;;;;;35.30;33.40;;;0.50;99.90;;;;;;5021917;28;20056;-77
2023/01/28 09:18:03;;;;;;;34.25;32.05;;;0.50;99.90;;;;;;5029137;28;20045;-74
2023/01/28 09:20:33;;;;;;;34.20;32.25;;;0.40;99.90;;;;;;5027288;28;20076;-74
2023/01/28 09:23:01;;;;;;;34.38;32.38;;;0.20;99.90;;;;;;5046931;28;20129;-74
2023/01/28 09:25:28;;;;;;;34.22;32.33;;;0.10;99.90;;;;;;5045111;28;20345;-74
2023/01/28 09:27:55;;;;;;;33.83;31.63;;;0.10;99.90;;;;;;5042897;28;20198;-74
2023/01/28 09:30:22;;;;;;;36.72;34.55;;;0.20;99.90;;;;;;5047968;28;20275;-77
2023/01/28 09:32:50;;;;;;;33.45;31.60;;;0.30;99.90;;;;;;5028524;28;20068;-75
2023/01/28 09:35:18;;;;;;;37.90;35.80;;;0.40;99.90;;;;;;5039773;28;20028;-75
2023/01/28 09:37:45;;;;;;;40.15;38.15;;;0.50;99.90;;;;;;5026711;28;20048;-74
2023/01/28 09:40:25;;;;;;;42.50;40.17;;;0.70;99.90;;;;;;5047329;28;20634;-74
2023/01/28 09:43:06;;;;;;;32.72;30.70;;;0.70;99.90;;;;;;5047384;28;20041;-74
2023/01/28 09:45:41;;;;;;;33.47;31.20;;;0.70;99.90;;;;;;5015668;28;20040;-74
2023/01/28 09:51:15;;;;;;;31.50;29.73;;;0.90;99.90;;;;;;4991792;28;20270;-76
2023/01/28 09:53:47;;;;;;;34.45;32.30;;;1.10;99.90;;;;;;4997101;28;20467;-76
2023/01/28 09:56:24;;;;;;;33.03;31.20;;;1.30;99.90;;;;;;4998318;28;20061;-75
2023/01/28 09:58:51;;;;;;;32.70;30.80;;;1.70;99.90;;;;;;4992737;28;20150;-75
2023/01/28 10:01:38;;;;;;;34.75;32.50;;;1.60;99.90;;;;;;4996242;28;20057;-75
2023/01/28 10:04:08;;;;;;;35.63;33.65;;;1.30;99.90;;;;;;4995441;28;20926;-75
2023/01/28 10:06:47;;;;;;;37.53;35.00;;;1.30;99.90;;;;;;4994801;28;20321;-75
2023/01/28 10:09:53;;;;;;;38.45;35.72;;;1.10;99.90;;;;;;4996187;28;20508;-75
2023/01/28 10:13:04;;;;;;;37.58;35.20;;;1.10;99.90;;;;;;4995431;28;20571;-75
2023/01/28 10:15:39;;;;;;;38.53;36.33;;;1.00;99.90;;;;;;4959006;28;20046;-76
2023/01/28 10:18:10;;;;;;;35.50;33.40;;;1.00;99.90;;;;;;4960701;28;20077;-75
2023/01/28 10:20:52;;;;;;;37.95;35.33;;;0.90;99.90;;;;;;4981840;28;20129;-76
2023/01/28 10:23:37;;;;;;;;;;;0.90;99.90;;;;;;4980071;28;20045;-74
2023/01/28 10:26:21;;;;;;;36.97;34.88;;;0.80;99.90;;;;;;5008514;28;19922;-74
2023/01/28 10:28:53;;;;;;;35.67;33.75;;;0.80;99.90;;;;;;5011011;28;20662;-74
2023/01/28 10:31:22;;;;;;;35.25;33.08;;;0.90;99.90;;;;;;4995897;28;20046;-74
2023/01/28 10:33:49;;;;;;;36.17;33.88;;;1.00;99.90;;;;;;4993320;28;20464;-73
2023/01/28 10:36:17;;;;;;;35.10;33.10;;;0.90;99.90;;;;;;4998075;28;20116;-73
2023/01/28 10:38:44;;;;;;;35.15;32.88;;;0.90;99.90;;;;;;4995236;28;20068;-76
2023/01/28 10:41:15;;;;;;;35.58;33.47;;;0.80;99.90;;;;;;4994584;28;20403;-76
2023/01/28 10:43:42;;;;;;;35.75;33.75;;;0.70;99.90;;;;;;4980644;28;20519;-76
2023/01/28 10:46:44;;;;;;;38.88;36.42;;;0.60;99.90;;;;;;4997395;28;20042;-74
2023/01/28 10:49:15;;;;;;;39.20;36.97;;;0.70;99.90;;;;;;4992268;28;20129;-73
2023/01/28 10:51:42;;;;;;;40.17;37.83;;;0.70;99.90;;;;;;4991947;28;20045;-74
2023/01/28 10:54:24;;;;;;;39.40;36.72;;;1.00;99.90;;;;;;4995239;28;20042;-74
2023/01/28 10:57:00;;;;;;;36.40;34.30;;;1.10;99.90;;;;;;4976941;28;20407;-74
2023/01/28 10:59:29;;;;;;;36.20;33.83;;;1.00;99.90;;;;;;4999022;28;20073;-74
2023/01/28 11:02:03;;;;;;;34.50;32.60;;;0.90;99.90;;;;;;4993013;28;20279;-74
2023/01/28 11:04:34;;;;;;;33.00;31.00;;;0.90;99.90;;;;;;5011204;28;20049;-76
2023/01/28 11:07:15;;;;;;;32.28;30.45;;;0.70;99.90;;;;;;4993867;28;20045;-76
2023/01/28 11:09:46;;;;;;;36.47;34.38;;;0.60;99.90;;;;;;4997268;28;20045;-77
2023/01/28 11:12:25;;;;;;;35.50;33.33;;;0.60;99.90;;;;;;4995707;28;20121;-76
2023/01/28 11:14:55;;;;;;;33.38;31.58;;;0.70;99.90;;;;;;4977035;28;20894;-77
2023/01/28 11:17:24;;;;;;;41.33;39.13;;;0.80;99.90;;;;;;4993752;28;20066;-76
2023/01/28 11:19:57;;;;;;;37.97;35.97;;;1.00;99.90;;;;;;4994445;28;20053;-76
2023/01/28 11:22:40;;;;;;;38.28;36.10;;;1.10;99.90;;;;;;4997089;28;20042;-77
2023/01/28 11:25:32;;;;;;;37.92;35.72;;;1.30;99.90;;;;;;5008734;28;20368;-77
2023/01/28 11:28:02;;;;;;;39.05;37.00;;;1.30;99.90;;;;;;5009602;28;20050;-75
2023/01/28 11:30:32;;;;;;;43.17;40.58;;;1.20;99.90;;;;;;4996080;28;20717;-74
2023/01/28 11:33:31;;;;;;;41.50;38.78;;;1.10;99.90;;;;;;5009931;28;20053;-74
2023/01/28 11:36:06;;;;;;;40.50;38.25;;;1.10;99.90;;;;;;4994242;28;20073;-77
2023/01/28 11:38:33;;;;;;;;;;;0.80;99.90;;;;;;4996850;28;20141;-74
2023/01/28 11:41:00;;;;;;;39.90;37.80;;;0.80;99.90;;;;;;4994647;28;19921;-75
2023/01/28 11:43:29;;;;;;;38.40;36.38;;;0.80;99.90;;;;;;4994959;28;20034;-77
2023/01/28 11:46:11;;;;;;;37.72;35.72;;;0.70;99.90;;;;;;4976764;28;20038;-77
2023/01/28 11:49:20;;;;;;;44.38;40.85;;;0.70;99.90;;;;;;4993832;28;20056;-75
2023/01/28 11:52:19;;;;;;;64.47;57.17;;;0.60;99.90;;;;;;5004769;28;20104;-75
2023/01/28 11:54:55;;;;;;;41.70;39.50;;;0.40;99.90;;;;;;5007172;28;20141;-77
2023/01/28 11:57:56;;;;;;;38.65;36.38;;;0.60;99.90;;;;;;5005207;28;20399;-75
2023/01/28 12:00:35;;;;;;;38.33;36.25;;;0.80;99.90;;;;;;4992555;28;20042;-75
2023/01/28 12:03:32;;;;;;;40.90;38.50;;;1.10;99.90;;;;;;5010616;28;20038;-74
2023/01/28 12:06:04;;;;;;;38.97;36.75;;;1.10;99.90;;;;;;4993768;28;20069;-75
2023/01/28 12:08:39;;;;;;;41.00;38.30;;;1.10;99.90;;;;;;4999573;28;20049;-75
2023/01/28 12:11:12;;;;;;;;;;;1.10;99.90;;;;;;5017768;28;20684;-75
2023/01/28 12:14:27;;;;;;;39.33;37.13;;;1.20;99.90;;;;;;5035972;28;19990;-75
2023/01/28 12:17:26;;;;;;;40.33;37.63;;;1.10;99.90;;;;;;5003235;28;20149;-75
2023/01/28 12:20:14;;;;;;;39.20;37.10;;;1.00;99.90;;;;;;4998027;28;20065;-77
2023/01/28 12:22:54;;;;;;;40.88;38.80;;;1.00;99.90;;;;;;4977473;28;20733;-75
2023/01/28 12:25:57;;;;;;;39.30;37.40;;;1.10;99.90;;;;;;4994593;28;20125;-75
2023/01/28 12:28:33;;;;;;;39.95;37.80;;;1.10;99.90;;;;;;4994061;28;20526;-75
2023/01/28 12:31:28;;;;;;;41.28;38.92;;;1.30;99.90;;;;;;5006606;28;20034;-76
2023/01/28 12:34:14;;;;;;;;;;;1.30;99.90;;;;;;4992103;28;20085;-75
2023/01/28 12:36:41;;;;;;;41.67;39.67;;;1.30;99.90;;;;;;5009295;28;19929;-75
2023/01/28 12:39:30;;;;;;;39.60;37.45;;;1.40;99.90;;;;;;4993080;28;21073;-75
2023/01/28 12:42:19;;;;;;;42.33;40.22;;;1.50;99.90;;;;;;4990647;28;20046;-75
2023/01/28 12:44:51;;;;;;;42.33;39.70;;;1.60;99.90;;;;;;4993287;28;20034;-77
2023/01/28 12:47:36;;;;;;;40.72;38.42;;;1.60;99.90;;;;;;4983050;28;20050;-77
2023/01/28 12:50:18;;;;;;;38.80;36.80;;;1.50;99.90;;;;;;5008860;28;20451;-77
2023/01/28 12:53:23;;;;;;;39.03;36.70;;;1.60;99.90;;;;;;5009625;28;20061;-77
2023/01/28 12:56:02;;;;;;;39.00;36.70;;;1.50;99.90;;;;;;4972385;28;20050;-76
2023/01/28 12:58:42;;;;;;;39.60;37.38;;;1.40;99.90;;;;;;4993783;28;20104;-75
2023/01/28 13:01:13;;;;;;;39.85;37.45;;;1.30;99.90;;;;;;4995523;28;20116;-76
2023/01/28 13:03:52;;;;;;;39.08;36.63;;;1.30;99.90;;;;;;5013178;28;20042;-75
2023/01/28 13:06:27;;;;;;;39.38;36.88;;;1.40;99.90;;;;;;4996446;28;20415;-75
2023/01/28 13:09:09;;;;;;;35.35;33.05;;;1.30;99.90;;;;;;4994355;28;20129;-76
2023/01/28 13:11:37;;;;;;;40.88;38.50;;;1.50;99.90;;;;;;4996741;28;20034;-76
2023/01/28 13:14:04;;;;;;;39.63;37.13;;;1.70;99.90;;;;;;5012857;28;20077;-75
2023/01/28 13:16:33;;;;;;;38.13;35.60;;;1.80;99.90;;;;;;4996839;28;20042;-76
2023/01/28 13:19:38;;;;;;;31.95;29.85;;;1.80;99.90;;;;;;5011093;28;20050;-76
2023/01/28 13:22:24;;;;;;;31.60;29.80;;;1.70;99.90;;;;;;4995428;28;20050;-76
2023/01/28 13:24:51;;;;;;;32.25;30.38;;;1.70;99.90;;;;;;4993796;28;20074;-75
2023/01/28 13:27:24;;;;;;;33.30;31.50;;;1.40;99.90;;;;;;4980991;28;20171;-76
2023/01/28 13:30:04;;;;;;;30.42;28.63;;;1.30;99.90;;;;;;4994919;28;20061;-76
2023/01/28 13:32:33;;;;;;;31.63;29.55;;;1.40;99.90;;;;;;5000724;28;20064;-76
2023/01/28 13:35:31;;;;;;;32.78;30.88;;;1.60;99.90;;;;;;4982842;28;20133;-77
2023/01/28 13:38:05;;;;;;;31.90;29.90;;;1.60;99.90;;;;;;4974819;28;20049;-76
2023/01/28 13:40:32;;;;;;;31.40;28.95;;;1.60;99.90;;;;;;5017389;28;20225;-76
2023/01/28 13:42:58;;;;;;;32.05;29.80;;;1.60;99.90;;;;;;4998810;28;20519;-76
2023/01/28 13:45:27;;;;;;;31.48;29.40;;;1.60;99.90;;;;;;4998184;28;20408;-76